createdAt,value
2022-09-11T00:01:14.243Z,1.20
2022-09-11T00:03:43.382Z,1.00
2022-09-11T00:06:13.204Z,1.20
2022-09-11T00:08:41.412Z,1.27
2022-09-11T00:11:12.805Z,1.63
2022-09-11T00:13:40.452Z,1.30
2022-09-11T00:16:18.891Z,1.17
2022-09-11T00:18:46.870Z,1.20
2022-09-11T00:21:13.878Z,1.63
2022-09-11T00:23:40.992Z,1.50
2022-09-11T00:26:08.182Z,1.35
2022-09-11T00:28:36.976Z,1.10
2022-09-11T00:31:07.530Z,1.35
2022-09-11T00:33:36.199Z,1.30
2022-09-11T00:36:12.820Z,1.45
2022-09-11T00:38:40.409Z,1.45
2022-09-11T00:41:09.215Z,1.42
2022-09-11T00:43:53.586Z,1.33
2022-09-11T00:46:21.075Z,1.15
2022-09-11T00:48:50.018Z,1.33
2022-09-11T00:51:26.267Z,1.42
2022-09-11T00:53:55.340Z,1.30
2022-09-11T00:56:24.315Z,1.20
2022-09-11T00:58:53.198Z,1.35
2022-09-11T01:01:20.570Z,1.25
2022-09-11T01:03:48.071Z,1.23
2022-09-11T01:06:15.551Z,1.17
2022-09-11T01:08:43.319Z,1.02
2022-09-11T01:11:21.331Z,1.60
2022-09-11T01:14:00.610Z,1.42
2022-09-11T01:16:28.295Z,1.35
2022-09-11T01:19:08.974Z,1.20
2022-09-11T01:21:45.418Z,1.30
2022-09-11T01:24:12.885Z,1.27
2022-09-11T01:26:53.964Z,1.05
2022-09-11T01:29:29.891Z,1.48
2022-09-11T01:31:57.314Z,1.13
2022-09-11T01:34:31.539Z,1.40
2022-09-11T01:37:03.536Z,1.20
2022-09-11T01:39:34.326Z,1.10
2022-09-11T01:42:05.032Z,1.48
2022-09-11T01:44:36.728Z,1.20
2022-09-11T01:47:09.997Z,1.20
2022-09-11T01:49:56.134Z,1.63
2022-09-11T01:52:30.268Z,1.50
2022-09-11T01:55:01.620Z,1.50
2022-09-11T01:57:35.818Z,1.50
2022-09-11T02:00:07.528Z,1.10
2022-09-11T02:02:45.221Z,1.40
2022-09-11T02:05:15.898Z,1.25
2022-09-11T02:07:51.737Z,1.40
2022-09-11T02:10:22.717Z,1.73
2022-09-11T02:12:54.177Z,1.30
2022-09-11T02:15:24.360Z,1.20
2022-09-11T02:18:00.146Z,1.40
2022-09-11T02:20:29.514Z,1.45
2022-09-11T02:22:57.886Z,1.40
2022-09-11T02:25:25.209Z,1.50
2022-09-11T02:27:56.211Z,1.60
2022-09-11T02:30:23.500Z,1.30
2022-09-11T02:32:50.539Z,1.20
2022-09-11T02:35:17.677Z,1.20
2022-09-11T02:38:08.643Z,1.45
2022-09-11T02:41:10.149Z,1.38
2022-09-11T02:43:54.629Z,1.40
2022-09-11T02:46:51.530Z,1.25
2022-09-11T02:49:25.159Z,1.30
2022-09-11T02:52:18.368Z,1.23
2022-09-11T02:55:23.771Z,1.15
2022-09-11T02:58:06.261Z,1.15
2022-09-11T03:00:33.885Z,1.17
2022-09-11T03:03:01.452Z,1.30
2022-09-11T03:05:29.064Z,1.10
2022-09-11T03:07:56.939Z,1.48
2022-09-11T03:10:25.872Z,1.10
2022-09-11T03:12:54.882Z,1.38
2022-09-11T03:15:23.626Z,1.13
2022-09-11T03:17:52.748Z,1.40
2022-09-11T03:20:22.229Z,1.33
2022-09-11T03:22:50.068Z,1.20
2022-09-11T03:25:18.015Z,1.20
2022-09-11T03:27:48.782Z,1.25
2022-09-11T03:30:16.392Z,1.42
2022-09-11T03:32:45.003Z,1.38
2022-09-11T03:35:13.765Z,1.20
2022-09-11T03:37:41.415Z,1.33
2022-09-11T03:40:09.184Z,1.33
2022-09-11T03:42:37.066Z,1.10
2022-09-11T03:45:04.818Z,1.10
2022-09-11T03:47:34.093Z,1.13
2022-09-11T03:50:01.856Z,1.00
2022-09-11T03:52:30.424Z,1.20
2022-09-11T03:54:58.296Z,0.90
2022-09-11T03:57:26.072Z,1.00
2022-09-11T03:59:56.745Z,1.40
2022-09-11T04:02:24.495Z,1.25
2022-09-11T04:04:52.739Z,1.20
2022-09-11T04:07:20.212Z,1.33
2022-09-11T04:09:47.900Z,1.40
2022-09-11T04:12:16.376Z,1.30
2022-09-11T04:14:44.434Z,1.60
2022-09-11T04:17:12.573Z,1.20
2022-09-11T04:19:40.324Z,1.23
2022-09-11T04:22:08.686Z,1.13
2022-09-11T04:24:40.210Z,1.17
2022-09-11T04:27:07.439Z,1.17
2022-09-11T04:29:35.322Z,1.20
2022-09-11T04:32:03.006Z,1.20
2022-09-11T04:34:34.485Z,1.33
2022-09-11T04:37:03.179Z,1.13
2022-09-11T04:39:32.029Z,1.13
2022-09-11T04:42:00.906Z,1.33
2022-09-11T04:44:29.699Z,1.30
2022-09-11T04:46:57.636Z,1.30
2022-09-11T04:49:25.814Z,1.20
2022-09-11T04:51:53.963Z,0.90
2022-09-11T04:54:24.640Z,1.02
2022-09-11T04:56:52.583Z,1.20
2022-09-11T04:59:22.376Z,1.00
2022-09-11T05:04:34.562Z,1.30
2022-09-11T05:07:02.979Z,1.00
2022-09-11T05:09:30.990Z,0.80
2022-09-11T05:11:59.278Z,1.30
2022-09-11T05:14:32.847Z,1.08
2022-09-11T05:17:02.784Z,1.05
2022-09-11T05:19:31.607Z,1.02
2022-09-11T05:21:59.039Z,1.00
2022-09-11T05:24:26.490Z,1.00
2022-09-11T05:26:55.382Z,1.17
2022-09-11T05:29:30.390Z,1.17
2022-09-11T05:32:03.575Z,0.98
2022-09-11T05:34:30.993Z,1.15
2022-09-11T05:36:59.711Z,1.00
2022-09-11T05:39:29.959Z,1.42
2022-09-11T05:41:58.228Z,1.05
2022-09-11T05:44:31.034Z,1.00
2022-09-11T05:46:59.060Z,0.80
2022-09-11T05:49:26.756Z,0.90
2022-09-11T05:51:54.181Z,1.00
2022-09-11T05:54:21.630Z,1.08
2022-09-11T05:56:49.119Z,1.23
2022-09-11T05:59:23.454Z,1.40
2022-09-11T06:01:52.060Z,0.98
2022-09-11T06:04:34.196Z,1.15
2022-09-11T06:07:01.833Z,1.23
2022-09-11T06:09:29.807Z,1.30
2022-09-11T06:11:57.101Z,1.10
2022-09-11T06:14:25.191Z,1.10
2022-09-11T06:16:55.105Z,1.08
2022-09-11T06:19:22.690Z,1.10
2022-09-11T06:21:50.790Z,1.27
2022-09-11T06:24:28.302Z,1.50
2022-09-11T06:26:57.095Z,1.48
2022-09-11T06:29:26.227Z,1.30
2022-09-11T06:31:54.611Z,1.70
2022-09-11T06:34:24.812Z,1.40
2022-09-11T06:36:52.616Z,1.95
2022-09-11T06:39:23.182Z,1.55
2022-09-11T06:41:53.975Z,1.73
2022-09-11T06:44:27.418Z,1.67
2022-09-11T06:46:57.407Z,1.50
2022-09-11T06:49:25.744Z,1.30
2022-09-11T06:52:11.688Z,1.40
2022-09-11T06:54:40.934Z,1.40
2022-09-11T06:57:13.482Z,1.35
2022-09-11T06:59:43.115Z,6.78
2022-09-11T07:02:10.946Z,3.63
2022-09-11T07:04:39.134Z,4.00
2022-09-11T07:07:07.684Z,3.03
2022-09-11T07:09:37.095Z,2.78
2022-09-11T07:12:04.633Z,1.80
2022-09-11T07:14:32.978Z,1.60
2022-09-11T07:17:10.374Z,1.60
2022-09-11T07:19:39.314Z,3.65
2022-09-11T07:22:07.278Z,2.00
2022-09-11T07:24:35.513Z,1.80
2022-09-11T07:27:02.928Z,2.60
2022-09-11T07:29:34.643Z,2.42
2022-09-11T07:32:02.438Z,2.00
2022-09-11T07:34:29.848Z,2.55
2022-09-11T07:37:00.508Z,1.80
2022-09-11T07:39:28.225Z,1.73
2022-09-11T07:42:01.226Z,1.92
2022-09-11T07:44:32.787Z,1.50
2022-09-11T07:47:00.983Z,2.45
2022-09-11T07:49:30.468Z,1.40
2022-09-11T07:51:59.362Z,1.20
2022-09-11T07:54:36.286Z,1.17
2022-09-11T07:57:04.187Z,1.40
2022-09-11T07:59:32.728Z,1.10
2022-09-11T08:02:00.107Z,1.80
2022-09-11T08:04:28.876Z,1.20
2022-09-11T08:06:57.379Z,1.02
2022-09-11T08:09:29.763Z,1.00
2022-09-11T08:11:59.942Z,1.02
2022-09-11T08:14:27.502Z,1.88
2022-09-11T08:16:58.897Z,2.13
2022-09-11T08:19:28.414Z,2.17
2022-09-11T08:21:59.312Z,1.90
2022-09-11T08:24:27.655Z,2.58
2022-09-11T08:26:59.709Z,1.92
2022-09-11T08:29:27.834Z,1.40
2022-09-11T08:31:57.188Z,1.40
2022-09-11T08:34:28.395Z,1.20
2022-09-11T08:36:55.368Z,2.70
2022-09-11T08:39:25.399Z,1.30
2022-09-11T08:42:09.490Z,1.85
2022-09-11T08:44:46.351Z,2.10
2022-09-11T08:47:28.675Z,1.20
2022-09-11T08:50:05.372Z,1.20
2022-09-11T08:52:36.706Z,1.83
2022-09-11T08:55:06.438Z,1.50
2022-09-11T08:58:24.801Z,1.80
2022-09-11T09:01:19.327Z,1.70
2022-09-11T09:04:26.845Z,2.33
2022-09-11T09:06:58.380Z,3.10
2022-09-11T09:09:59.620Z,1.60
2022-09-11T09:12:45.683Z,2.10
2022-09-11T09:15:20.941Z,1.60
2022-09-11T09:18:06.553Z,1.45
2022-09-11T09:20:38.586Z,1.80
2022-09-11T09:23:17.408Z,1.70
2022-09-11T09:25:46.691Z,2.55
2022-09-11T09:28:41.319Z,1.52
2022-09-11T09:31:15.023Z,1.40
2022-09-11T09:34:06.698Z,1.98
2022-09-11T09:36:43.829Z,1.75
2022-09-11T09:39:16.527Z,2.00
2022-09-11T09:42:11.174Z,2.90
2022-09-11T09:44:56.114Z,2.90
2022-09-11T09:47:23.482Z,2.83
2022-09-11T09:49:51.570Z,1.58
2022-09-11T09:52:22.869Z,2.67
2022-09-11T09:55:01.301Z,1.50
2022-09-11T09:57:36.735Z,2.72
2022-09-11T10:00:13.137Z,1.65
2022-09-11T10:02:45.476Z,2.13
2022-09-11T10:05:30.028Z,1.38
2022-09-11T10:10:36.354Z,1.20
2022-09-11T10:13:28.415Z,1.90
2022-09-11T10:16:01.495Z,1.65
2022-09-11T10:18:43.006Z,1.58
2022-09-11T10:21:13.373Z,1.50
2022-09-11T10:23:57.747Z,1.80
2022-09-11T10:26:51.444Z,1.10
2022-09-11T10:29:24.761Z,1.15
2022-09-11T10:31:59.670Z,1.30
2022-09-11T10:34:28.012Z,1.85
2022-09-11T10:37:15.196Z,1.42
2022-09-11T10:39:44.739Z,1.20
2022-09-11T10:42:16.644Z,1.20
2022-09-11T10:44:45.010Z,0.80
2022-09-11T10:47:25.151Z,1.33
2022-09-11T10:50:18.807Z,0.90
2022-09-11T10:52:54.064Z,0.70
2022-09-11T10:55:21.717Z,1.00
2022-09-11T10:57:56.757Z,1.10
2022-09-11T11:00:25.308Z,1.10
2022-09-11T11:02:54.953Z,1.40
2022-09-11T11:05:27.013Z,0.90
2022-09-11T11:08:06.666Z,1.05
2022-09-11T11:10:39.859Z,0.68
2022-09-11T11:13:16.334Z,0.60
2022-09-11T11:15:43.812Z,0.80
2022-09-11T11:18:17.790Z,0.70
2022-09-11T11:21:00.535Z,0.70
2022-09-11T11:23:34.032Z,0.70
2022-09-11T11:26:20.302Z,0.90
2022-09-11T11:28:48.921Z,1.20
2022-09-11T11:31:23.569Z,0.70
2022-09-11T11:33:56.569Z,1.10
2022-09-11T11:36:32.364Z,0.80
2022-09-11T11:39:08.805Z,0.60
2022-09-11T11:41:40.417Z,0.80
2022-09-11T11:44:12.275Z,1.10
2022-09-11T11:46:46.089Z,0.90
2022-09-11T11:49:24.011Z,0.60
2022-09-11T11:52:02.608Z,0.70
2022-09-11T11:54:39.014Z,0.50
2022-09-11T11:57:16.825Z,0.50
2022-09-11T11:59:58.704Z,0.50
2022-09-11T12:02:33.906Z,0.50
2022-09-11T12:05:11.117Z,0.70
2022-09-11T12:07:39.528Z,0.60
2022-09-11T12:10:18.039Z,0.90
2022-09-11T12:12:48.572Z,0.90
2022-09-11T12:15:24.398Z,0.60
2022-09-11T12:18:04.796Z,0.90
2022-09-11T12:20:40.481Z,0.70
2022-09-11T12:23:30.247Z,0.88
2022-09-11T12:26:10.735Z,0.80
2022-09-11T12:28:38.056Z,1.30
2022-09-11T12:31:12.916Z,0.70
2022-09-11T12:33:41.398Z,0.80
2022-09-11T12:36:10.334Z,0.73
2022-09-11T12:38:41.791Z,0.70
2022-09-11T12:41:33.812Z,0.63
2022-09-11T12:44:05.021Z,0.70
2022-09-11T12:46:32.038Z,0.63
2022-09-11T12:49:22.228Z,0.60
2022-09-11T12:51:59.547Z,0.60
2022-09-11T12:54:39.715Z,0.90
2022-09-11T12:57:09.980Z,0.70
2022-09-11T12:59:38.626Z,0.70
2022-09-11T13:02:36.936Z,1.00
2022-09-11T13:05:15.141Z,1.15
2022-09-11T13:07:47.301Z,0.80
2022-09-11T13:10:38.274Z,1.00
2022-09-11T13:13:37.495Z,0.50
2022-09-11T13:16:20.933Z,0.95
2022-09-11T13:18:48.304Z,0.40
2022-09-11T13:21:20.316Z,0.88
2022-09-11T13:23:50.351Z,0.95
2022-09-11T13:26:31.514Z,0.80
2022-09-11T13:29:00.568Z,0.60
2022-09-11T13:31:34.560Z,0.60
2022-09-11T13:36:31.414Z,0.60
2022-09-11T13:39:01.659Z,0.73
2022-09-11T13:41:30.913Z,0.85
2022-09-11T13:43:59.682Z,0.70
2022-09-11T13:46:31.620Z,0.80
2022-09-11T13:49:11.932Z,0.70
2022-09-11T13:51:44.671Z,0.90
2022-09-11T13:54:22.360Z,1.30
2022-09-11T13:56:55.616Z,1.13
2022-09-11T13:59:43.005Z,1.07
2022-09-11T14:02:22.671Z,0.90
2022-09-11T14:04:55.054Z,0.70
2022-09-11T14:07:24.773Z,0.65
2022-09-11T14:09:57.985Z,0.60
2022-09-11T14:12:25.808Z,1.40
2022-09-11T14:14:55.021Z,0.98
2022-09-11T14:17:23.151Z,0.88
2022-09-11T14:19:51.634Z,1.90
2022-09-11T14:22:24.783Z,0.70
2022-09-11T14:25:04.080Z,0.70
2022-09-11T14:27:32.820Z,0.40
2022-09-11T14:30:00.594Z,0.63
2022-09-11T14:32:31.322Z,0.55
2022-09-11T14:34:59.177Z,0.50
2022-09-11T14:37:28.026Z,0.50
2022-09-11T14:39:56.885Z,0.45
2022-09-11T14:42:26.314Z,0.50
2022-09-11T14:44:53.821Z,0.65
2022-09-11T14:47:23.011Z,0.40
2022-09-11T14:49:54.285Z,0.70
2022-09-11T14:52:29.512Z,0.98
2022-09-11T14:54:57.081Z,0.70
2022-09-11T14:57:26.410Z,0.82
2022-09-11T14:59:54.112Z,0.80
2022-09-11T15:02:23.443Z,1.00
2022-09-11T15:04:52.215Z,1.40
2022-09-11T15:07:20.210Z,1.50
2022-09-11T15:09:47.157Z,1.10
2022-09-11T15:12:15.367Z,0.80
2022-09-11T15:14:56.140Z,0.50
2022-09-11T15:17:25.251Z,0.45
2022-09-11T15:19:53.146Z,0.90
2022-09-11T15:22:20.825Z,0.60
2022-09-11T15:24:48.824Z,0.60
2022-09-11T15:27:19.108Z,0.73
2022-09-11T15:29:46.381Z,0.60
2022-09-11T15:32:14.482Z,0.50
2022-09-11T15:34:43.527Z,0.65
2022-09-11T15:37:11.698Z,0.60
2022-09-11T15:39:39.161Z,0.50
2022-09-11T15:42:07.486Z,0.60
2022-09-11T15:44:35.976Z,0.50
2022-09-11T15:47:04.227Z,0.40
2022-09-11T15:49:32.061Z,0.50
2022-09-11T15:52:00.747Z,0.40
2022-09-11T15:54:28.546Z,0.50
2022-09-11T15:56:55.998Z,0.50
2022-09-11T15:59:23.736Z,0.50
2022-09-11T16:01:50.861Z,0.60
2022-09-11T16:04:21.283Z,0.70
2022-09-11T16:06:49.389Z,0.60
2022-09-11T16:09:18.505Z,0.60
2022-09-11T16:11:48.011Z,0.80
2022-09-11T16:14:17.303Z,0.73
2022-09-11T16:16:47.071Z,0.70
2022-09-11T16:19:18.558Z,0.80
2022-09-11T16:21:46.226Z,0.80
2022-09-11T16:24:15.557Z,0.80
2022-09-11T16:26:44.220Z,0.88
2022-09-11T16:29:13.085Z,0.80
2022-09-11T16:31:40.839Z,0.90
2022-09-11T16:34:09.215Z,0.90
2022-09-11T16:36:38.766Z,0.90
2022-09-11T16:39:07.286Z,1.10
2022-09-11T16:41:34.930Z,1.08
2022-09-11T16:44:02.490Z,1.20
2022-09-11T16:46:31.062Z,0.90
2022-09-11T16:49:01.660Z,1.00
2022-09-11T16:51:29.947Z,1.40
2022-09-11T16:53:57.628Z,1.23
2022-09-11T16:56:26.537Z,1.77
2022-09-11T16:58:54.737Z,1.20
2022-09-11T17:01:23.531Z,1.17
2022-09-11T17:03:51.960Z,1.00
2022-09-11T17:06:20.679Z,1.20
2022-09-11T17:08:50.475Z,1.17
2022-09-11T17:11:19.547Z,1.08
2022-09-11T17:13:46.963Z,1.20
2022-09-11T17:16:16.819Z,1.13
2022-09-11T17:18:48.687Z,1.10
2022-09-11T17:21:17.360Z,1.13
2022-09-11T17:23:45.204Z,1.30
2022-09-11T17:26:15.179Z,1.30
2022-09-11T17:28:42.945Z,1.20
2022-09-11T17:31:11.255Z,1.00
2022-09-11T17:33:40.268Z,1.40
2022-09-11T17:36:08.859Z,1.17
2022-09-11T17:38:36.924Z,1.40
2022-09-11T17:41:05.402Z,1.50
2022-09-11T17:43:33.362Z,1.63
2022-09-11T17:46:01.947Z,1.67
2022-09-11T17:48:29.471Z,1.60
2022-09-11T17:51:06.697Z,1.13
2022-09-11T17:53:38.554Z,1.30
2022-09-11T17:56:07.438Z,1.00
2022-09-11T17:58:35.512Z,1.10
2022-09-11T18:01:03.192Z,1.20
2022-09-11T18:03:31.797Z,1.10
2022-09-11T18:05:59.781Z,1.20
2022-09-11T18:08:27.689Z,1.13
2022-09-11T18:10:59.668Z,1.20
2022-09-11T18:13:27.761Z,1.15
2022-09-11T18:15:56.253Z,1.05
2022-09-11T18:18:23.975Z,1.23
2022-09-11T18:20:54.468Z,1.30
2022-09-11T18:23:23.125Z,1.15
2022-09-11T18:25:51.634Z,1.35
2022-09-11T18:28:20.072Z,1.27
2022-09-11T18:30:47.627Z,1.10
2022-09-11T18:33:18.536Z,1.00
2022-09-11T18:35:46.633Z,1.13
2022-09-11T18:38:13.637Z,1.20
2022-09-11T18:40:41.088Z,1.30
2022-09-11T18:43:08.876Z,1.20
2022-09-11T18:45:37.055Z,1.10
2022-09-11T18:48:05.282Z,1.10
2022-09-11T18:50:32.769Z,1.17
2022-09-11T18:53:00.369Z,1.10
2022-09-11T18:55:28.847Z,1.17
2022-09-11T18:57:57.198Z,1.30
2022-09-11T19:00:24.730Z,1.30
2022-09-11T19:02:55.494Z,1.48
2022-09-11T19:05:24.066Z,1.50
2022-09-11T19:07:51.667Z,1.38
2022-09-11T19:10:18.751Z,1.60
2022-09-11T19:12:48.204Z,1.50
2022-09-11T19:15:16.891Z,1.50
2022-09-11T19:17:47.724Z,1.67
2022-09-11T19:20:16.330Z,1.75
2022-09-11T19:22:44.307Z,1.55
2022-09-11T19:25:11.357Z,1.67
2022-09-11T19:27:38.765Z,1.40
2022-09-11T19:30:06.791Z,1.52
2022-09-11T19:32:34.250Z,1.30
2022-09-11T19:35:01.886Z,1.10
2022-09-11T19:37:29.330Z,1.20
2022-09-11T19:40:00.303Z,1.30
2022-09-11T19:42:29.168Z,1.48
2022-09-11T19:44:56.634Z,1.20
2022-09-11T19:47:25.536Z,1.40
2022-09-11T19:49:54.068Z,1.40
2022-09-11T19:52:21.580Z,1.40
2022-09-11T19:54:49.043Z,1.50
2022-09-11T19:57:16.430Z,1.38
2022-09-11T19:59:43.890Z,1.50
2022-09-11T20:02:11.902Z,1.30
2022-09-11T20:04:39.048Z,1.20
2022-09-11T20:07:06.263Z,1.30
2022-09-11T20:09:34.165Z,1.33
2022-09-11T20:12:01.942Z,1.20
2022-09-11T20:14:30.130Z,1.20
2022-09-11T20:16:57.169Z,1.25
2022-09-11T20:19:24.431Z,1.17
2022-09-11T20:21:51.415Z,1.63
2022-09-11T20:24:19.802Z,1.40
2022-09-11T20:26:47.260Z,1.30
2022-09-11T20:29:15.972Z,1.50
2022-09-11T20:31:48.917Z,1.40
2022-09-11T20:34:17.537Z,1.40
2022-09-11T20:36:45.192Z,1.30
2022-09-11T20:39:13.751Z,1.77
2022-09-11T20:41:41.339Z,1.30
2022-09-11T20:44:08.725Z,1.17
2022-09-11T20:46:36.535Z,1.30
2022-09-11T20:49:05.091Z,1.60
2022-09-11T20:51:32.958Z,1.70
2022-09-11T20:54:00.916Z,1.42
2022-09-11T20:56:29.169Z,1.83
2022-09-11T20:58:57.458Z,1.60
2022-09-11T21:01:25.887Z,1.60
2022-09-11T21:03:54.810Z,1.58
2022-09-11T21:06:25.851Z,1.75
2022-09-11T21:08:58.013Z,1.70
2022-09-11T21:11:26.100Z,1.70
2022-09-11T21:13:53.515Z,1.90
2022-09-11T21:16:21.628Z,1.83
2022-09-11T21:18:50.518Z,1.73
2022-09-11T21:21:18.488Z,1.70
2022-09-11T21:23:46.019Z,1.70
2022-09-11T21:26:15.072Z,1.90
2022-09-11T21:28:42.584Z,1.77
2022-09-11T21:31:10.041Z,1.88
2022-09-11T21:33:37.842Z,1.63
2022-09-11T21:36:06.619Z,1.70
2022-09-11T21:38:34.108Z,1.90
2022-09-11T21:41:02.520Z,1.85
2022-09-11T21:43:30.003Z,1.45
2022-09-11T21:45:57.417Z,1.67
2022-09-11T21:48:24.941Z,1.40
2022-09-11T21:50:52.633Z,1.80
2022-09-11T21:53:20.677Z,1.50
2022-09-11T21:55:51.137Z,1.92
2022-09-11T21:58:20.566Z,1.60
2022-09-11T22:00:49.114Z,1.60
2022-09-11T22:03:18.476Z,2.08
2022-09-11T22:05:49.122Z,1.80
2022-09-11T22:08:18.053Z,1.90
2022-09-11T22:10:49.386Z,1.92
2022-09-11T22:13:17.780Z,1.90
2022-09-11T22:15:46.551Z,1.70
2022-09-11T22:18:14.664Z,1.90
2022-09-11T22:20:42.136Z,1.70
2022-09-11T22:23:15.673Z,1.77
2022-09-11T22:25:43.359Z,1.70
2022-09-11T22:28:10.521Z,1.80
2022-09-11T22:30:41.843Z,1.75
2022-09-11T22:33:09.046Z,1.85
2022-09-11T22:35:36.427Z,1.60
2022-09-11T22:38:03.816Z,1.50
2022-09-11T22:40:31.314Z,1.80
2022-09-11T22:42:58.743Z,1.60
2022-09-11T22:45:26.387Z,1.48
2022-09-11T22:47:53.837Z,1.70
2022-09-11T22:50:21.321Z,1.90
2022-09-11T22:52:49.094Z,1.60
2022-09-11T22:55:16.916Z,1.98
2022-09-11T22:57:44.327Z,1.60
2022-09-11T23:00:14.457Z,1.77
2022-09-11T23:02:41.933Z,1.70
2022-09-11T23:05:28.092Z,1.60
2022-09-11T23:07:55.505Z,1.67
2022-09-11T23:10:23.819Z,1.70
2022-09-11T23:12:51.884Z,1.77
2022-09-11T23:15:19.889Z,1.90
2022-09-11T23:17:47.460Z,1.80
2022-09-11T23:20:15.060Z,2.00
2022-09-11T23:22:42.241Z,1.80
2022-09-11T23:25:11.110Z,1.80
2022-09-11T23:27:38.373Z,2.10
2022-09-11T23:30:06.035Z,1.88
2022-09-11T23:32:33.559Z,2.13
2022-09-11T23:35:00.956Z,2.20
2022-09-11T23:37:28.406Z,1.95
2022-09-11T23:39:55.900Z,1.90
2022-09-11T23:42:23.703Z,1.80
2022-09-11T23:44:51.058Z,1.90
2022-09-11T23:47:18.452Z,2.03
2022-09-11T23:49:46.290Z,2.00
2022-09-11T23:52:13.591Z,2.30
2022-09-11T23:54:41.210Z,2.60
2022-09-11T23:57:08.357Z,2.40
2022-09-11T23:59:36.197Z,2.53
